sensor_id;sensor_type;location;lat;lon;timestamp;P1;durP1;ratioP1;P2;durP2;ratioP2
17890;SDS011;9071;48.220;14.480;2022-08-19T00:02:15;7.93;;;4.97;;
17890;SDS011;9071;48.220;14.480;2022-08-19T00:07:17;9.68;;;4.85;;
17890;SDS011;9071;48.220;14.480;2022-08-19T00:12:20;9.65;;;5.38;;
17890;SDS011;9071;48.220;14.480;2022-08-19T00:17:24;9.18;;;4.75;;
17890;SDS011;9071;48.220;14.480;2022-08-19T00:22:26;6.38;;;5.13;;
17890;SDS011;9071;48.220;14.480;2022-08-19T00:27:28;10.52;;;5.05;;
17890;SDS011;9071;48.220;14.480;2022-08-19T00:32:31;11.32;;;5.40;;
17890;SDS011;9071;48.220;14.480;2022-08-19T00:37:35;12.23;;;6.80;;
17890;SDS011;9071;48.220;14.480;2022-08-19T00:42:37;7.38;;;5.38;;
17890;SDS011;9071;48.220;14.480;2022-08-19T00:47:41;9.45;;;5.70;;
17890;SDS011;9071;48.220;14.480;2022-08-19T00:52:44;10.73;;;5.70;;
17890;SDS011;9071;48.220;14.480;2022-08-19T00:57:49;12.52;;;7.20;;
17890;SDS011;9071;48.220;14.480;2022-08-19T01:02:56;14.18;;;7.10;;
17890;SDS011;9071;48.220;14.480;2022-08-19T01:07:59;12.02;;;7.10;;
17890;SDS011;9071;48.220;14.480;2022-08-19T01:13:03;8.30;;;5.97;;
17890;SDS011;9071;48.220;14.480;2022-08-19T01:18:08;14.80;;;7.20;;
17890;SDS011;9071;48.220;14.480;2022-08-19T01:23:14;9.93;;;6.63;;
17890;SDS011;9071;48.220;14.480;2022-08-19T01:28:17;12.38;;;7.53;;
17890;SDS011;9071;48.220;14.480;2022-08-19T01:33:21;13.88;;;7.70;;
17890;SDS011;9071;48.220;14.480;2022-08-19T01:38:25;14.65;;;6.97;;
17890;SDS011;9071;48.220;14.480;2022-08-19T01:43:32;12.50;;;7.30;;
17890;SDS011;9071;48.220;14.480;2022-08-19T01:48:35;13.15;;;7.93;;
17890;SDS011;9071;48.220;14.480;2022-08-19T01:53:40;15.48;;;7.53;;
17890;SDS011;9071;48.220;14.480;2022-08-19T01:58:45;16.48;;;7.63;;
17890;SDS011;9071;48.220;14.480;2022-08-19T02:03:51;14.10;;;7.45;;
17890;SDS011;9071;48.220;14.480;2022-08-19T02:08:55;14.13;;;7.60;;
17890;SDS011;9071;48.220;14.480;2022-08-19T02:13:58;14.38;;;7.45;;
17890;SDS011;9071;48.220;14.480;2022-08-19T02:19:00;16.63;;;7.95;;
17890;SDS011;9071;48.220;14.480;2022-08-19T02:24:04;11.73;;;7.40;;
17890;SDS011;9071;48.220;14.480;2022-08-19T02:29:06;12.23;;;7.32;;
17890;SDS011;9071;48.220;14.480;2022-08-19T02:34:08;14.90;;;7.20;;
17890;SDS011;9071;48.220;14.480;2022-08-19T02:39:12;13.77;;;7.55;;
17890;SDS011;9071;48.220;14.480;2022-08-19T02:44:14;12.43;;;8.20;;
17890;SDS011;9071;48.220;14.480;2022-08-19T02:49:16;18.17;;;8.32;;
17890;SDS011;9071;48.220;14.480;2022-08-19T02:54:20;15.45;;;8.15;;
17890;SDS011;9071;48.220;14.480;2022-08-19T02:59:22;12.10;;;8.52;;
17890;SDS011;9071;48.220;14.480;2022-08-19T03:04:24;17.08;;;9.00;;
17890;SDS011;9071;48.220;14.480;2022-08-19T03:09:28;16.02;;;10.02;;
17890;SDS011;9071;48.220;14.480;2022-08-19T03:14:30;15.82;;;8.88;;
17890;SDS011;9071;48.220;14.480;2022-08-19T03:19:33;17.63;;;9.65;;
17890;SDS011;9071;48.220;14.480;2022-08-19T03:24:38;13.40;;;9.23;;
17890;SDS011;9071;48.220;14.480;2022-08-19T03:29:40;19.38;;;9.80;;
17890;SDS011;9071;48.220;14.480;2022-08-19T03:34:42;18.38;;;9.50;;
17890;SDS011;9071;48.220;14.480;2022-08-19T03:39:46;15.32;;;9.23;;
17890;SDS011;9071;48.220;14.480;2022-08-19T03:44:48;16.38;;;9.30;;
17890;SDS011;9071;48.220;14.480;2022-08-19T03:49:50;14.38;;;9.10;;
17890;SDS011;9071;48.220;14.480;2022-08-19T03:54:54;20.95;;;9.75;;
17890;SDS011;9071;48.220;14.480;2022-08-19T03:59:56;20.00;;;9.95;;
17890;SDS011;9071;48.220;14.480;2022-08-19T04:04:59;22.73;;;10.73;;
17890;SDS011;9071;48.220;14.480;2022-08-19T04:10:02;16.30;;;9.48;;
17890;SDS011;9071;48.220;14.480;2022-08-19T04:15:05;16.38;;;10.55;;
17890;SDS011;9071;48.220;14.480;2022-08-19T04:20:08;15.23;;;10.38;;
17890;SDS011;9071;48.220;14.480;2022-08-19T04:25:12;13.75;;;10.27;;
17890;SDS011;9071;48.220;14.480;2022-08-19T04:30:14;20.80;;;10.27;;
17890;SDS011;9071;48.220;14.480;2022-08-19T04:35:34;17.75;;;9.82;;
17890;SDS011;9071;48.220;14.480;2022-08-19T04:40:41;13.15;;;8.40;;
17890;SDS011;9071;48.220;14.480;2022-08-19T04:46:04;15.45;;;9.50;;
17890;SDS011;9071;48.220;14.480;2022-08-19T04:51:07;12.20;;;8.30;;
17890;SDS011;9071;48.220;14.480;2022-08-19T04:56:15;13.57;;;7.97;;
17890;SDS011;9071;48.220;14.480;2022-08-19T05:01:21;15.02;;;8.20;;
17890;SDS011;9071;48.220;14.480;2022-08-19T05:06:24;15.32;;;8.45;;
17890;SDS011;9071;48.220;14.480;2022-08-19T05:11:28;17.52;;;9.35;;
17890;SDS011;9071;48.220;14.480;2022-08-19T05:16:32;18.90;;;9.30;;
17890;SDS011;9071;48.220;14.480;2022-08-19T05:21:34;29.70;;;10.02;;
17890;SDS011;9071;48.220;14.480;2022-08-19T05:26:56;22.33;;;11.30;;
17890;SDS011;9071;48.220;14.480;2022-08-19T05:31:58;19.08;;;10.52;;
17890;SDS011;9071;48.220;14.480;2022-08-19T05:37:02;22.80;;;10.95;;
17890;SDS011;9071;48.220;14.480;2022-08-19T05:42:07;17.88;;;10.32;;
17890;SDS011;9071;48.220;14.480;2022-08-19T05:47:11;19.38;;;10.55;;
17890;SDS011;9071;48.220;14.480;2022-08-19T05:52:15;17.75;;;9.73;;
17890;SDS011;9071;48.220;14.480;2022-08-19T05:57:19;18.27;;;9.75;;
17890;SDS011;9071;48.220;14.480;2022-08-19T06:02:21;19.10;;;10.98;;
17890;SDS011;9071;48.220;14.480;2022-08-19T06:07:23;21.92;;;11.15;;
17890;SDS011;9071;48.220;14.480;2022-08-19T06:12:27;19.48;;;11.25;;
17890;SDS011;9071;48.220;14.480;2022-08-19T06:17:33;17.05;;;8.80;;
17890;SDS011;9071;48.220;14.480;2022-08-19T06:22:37;18.50;;;9.00;;
17890;SDS011;9071;48.220;14.480;2022-08-19T06:27:40;18.50;;;9.38;;
17890;SDS011;9071;48.220;14.480;2022-08-19T06:32:42;12.48;;;9.32;;
17890;SDS011;9071;48.220;14.480;2022-08-19T06:37:45;13.70;;;9.32;;
17890;SDS011;9071;48.220;14.480;2022-08-19T06:42:48;11.85;;;8.57;;
17890;SDS011;9071;48.220;14.480;2022-08-19T06:47:50;14.57;;;8.63;;
17890;SDS011;9071;48.220;14.480;2022-08-19T06:52:56;14.20;;;9.18;;
17890;SDS011;9071;48.220;14.480;2022-08-19T06:57:59;15.30;;;9.70;;
17890;SDS011;9071;48.220;14.480;2022-08-19T07:03:03;15.55;;;10.57;;
17890;SDS011;9071;48.220;14.480;2022-08-19T07:08:05;13.68;;;10.57;;
17890;SDS011;9071;48.220;14.480;2022-08-19T07:13:09;14.25;;;11.27;;
17890;SDS011;9071;48.220;14.480;2022-08-19T07:18:11;18.35;;;13.35;;
17890;SDS011;9071;48.220;14.480;2022-08-19T07:23:13;16.85;;;12.50;;
17890;SDS011;9071;48.220;14.480;2022-08-19T07:28:17;15.70;;;12.63;;
17890;SDS011;9071;48.220;14.480;2022-08-19T07:33:21;17.75;;;12.70;;
17890;SDS011;9071;48.220;14.480;2022-08-19T07:38:24;18.17;;;13.57;;
17890;SDS011;9071;48.220;14.480;2022-08-19T07:43:27;14.45;;;12.70;;
17890;SDS011;9071;48.220;14.480;2022-08-19T07:48:29;17.90;;;14.63;;
17890;SDS011;9071;48.220;14.480;2022-08-19T07:53:32;15.43;;;13.82;;
17890;SDS011;9071;48.220;14.480;2022-08-19T07:58:37;18.15;;;13.52;;
17890;SDS011;9071;48.220;14.480;2022-08-19T08:03:41;15.23;;;13.32;;
17890;SDS011;9071;48.220;14.480;2022-08-19T08:09:02;17.98;;;14.63;;
17890;SDS011;9071;48.220;14.480;2022-08-19T08:14:23;19.80;;;14.73;;
17890;SDS011;9071;48.220;14.480;2022-08-19T08:19:27;19.80;;;15.05;;
17890;SDS011;9071;48.220;14.480;2022-08-19T08:24:30;19.10;;;15.52;;
17890;SDS011;9071;48.220;14.480;2022-08-19T08:29:35;21.40;;;16.52;;
17890;SDS011;9071;48.220;14.480;2022-08-19T08:34:37;19.80;;;16.25;;
17890;SDS011;9071;48.220;14.480;2022-08-19T08:39:39;20.92;;;17.08;;
17890;SDS011;9071;48.220;14.480;2022-08-19T08:44:44;22.67;;;17.55;;
17890;SDS011;9071;48.220;14.480;2022-08-19T08:49:53;22.27;;;18.58;;
17890;SDS011;9071;48.220;14.480;2022-08-19T08:55:00;22.45;;;18.98;;
17890;SDS011;9071;48.220;14.480;2022-08-19T09:00:07;26.75;;;19.60;;
17890;SDS011;9071;48.220;14.480;2022-08-19T09:05:13;26.58;;;19.98;;
17890;SDS011;9071;48.220;14.480;2022-08-19T09:10:17;30.15;;;22.85;;
17890;SDS011;9071;48.220;14.480;2022-08-19T09:15:32;28.58;;;21.35;;
17890;SDS011;9071;48.220;14.480;2022-08-19T09:20:37;22.25;;;19.45;;
17890;SDS011;9071;48.220;14.480;2022-08-19T09:25:39;28.30;;;21.20;;
17890;SDS011;9071;48.220;14.480;2022-08-19T09:30:43;26.33;;;22.27;;
17890;SDS011;9071;48.220;14.480;2022-08-19T09:35:45;27.30;;;21.08;;
17890;SDS011;9071;48.220;14.480;2022-08-19T09:40:47;32.50;;;27.42;;
17890;SDS011;9071;48.220;14.480;2022-08-19T09:45:51;33.13;;;27.02;;
17890;SDS011;9071;48.220;14.480;2022-08-19T09:50:54;31.38;;;26.25;;
17890;SDS011;9071;48.220;14.480;2022-08-19T09:55:56;33.88;;;27.38;;
17890;SDS011;9071;48.220;14.480;2022-08-19T10:00:59;32.33;;;24.95;;
17890;SDS011;9071;48.220;14.480;2022-08-19T10:06:04;30.48;;;24.73;;
17890;SDS011;9071;48.220;14.480;2022-08-19T10:11:06;28.48;;;25.35;;
17890;SDS011;9071;48.220;14.480;2022-08-19T10:16:12;28.30;;;23.40;;
17890;SDS011;9071;48.220;14.480;2022-08-19T10:21:16;26.95;;;24.08;;
17890;SDS011;9071;48.220;14.480;2022-08-19T10:26:21;28.95;;;25.88;;
17890;SDS011;9071;48.220;14.480;2022-08-19T10:31:27;27.80;;;23.65;;
17890;SDS011;9071;48.220;14.480;2022-08-19T10:36:32;27.13;;;22.00;;
17890;SDS011;9071;48.220;14.480;2022-08-19T10:41:36;25.50;;;22.77;;
17890;SDS011;9071;48.220;14.480;2022-08-19T10:46:42;26.15;;;22.45;;
17890;SDS011;9071;48.220;14.480;2022-08-19T10:51:47;24.17;;;20.80;;
17890;SDS011;9071;48.220;14.480;2022-08-19T10:57:06;22.60;;;18.67;;
17890;SDS011;9071;48.220;14.480;2022-08-19T11:02:10;22.35;;;17.90;;
17890;SDS011;9071;48.220;14.480;2022-08-19T11:07:13;16.58;;;14.30;;
17890;SDS011;9071;48.220;14.480;2022-08-19T11:12:15;15.82;;;14.13;;
17890;SDS011;9071;48.220;14.480;2022-08-19T11:22:43;14.32;;;12.57;;
17890;SDS011;9071;48.220;14.480;2022-08-19T11:27:45;12.02;;;10.77;;
17890;SDS011;9071;48.220;14.480;2022-08-19T11:32:52;14.70;;;12.10;;
17890;SDS011;9071;48.220;14.480;2022-08-19T11:37:54;13.60;;;12.30;;
17890;SDS011;9071;48.220;14.480;2022-08-19T11:42:58;14.70;;;12.30;;
17890;SDS011;9071;48.220;14.480;2022-08-19T11:48:01;13.88;;;12.55;;
17890;SDS011;9071;48.220;14.480;2022-08-19T11:53:03;17.70;;;13.13;;
17890;SDS011;9071;48.220;14.480;2022-08-19T11:58:06;13.52;;;12.15;;
17890;SDS011;9071;48.220;14.480;2022-08-19T12:03:09;12.48;;;11.15;;
17890;SDS011;9071;48.220;14.480;2022-08-19T12:08:12;10.77;;;9.10;;
17890;SDS011;9071;48.220;14.480;2022-08-19T12:13:15;11.15;;;9.73;;
17890;SDS011;9071;48.220;14.480;2022-08-19T12:18:19;10.10;;;7.85;;
17890;SDS011;9071;48.220;14.480;2022-08-19T12:23:21;10.88;;;7.43;;
17890;SDS011;9071;48.220;14.480;2022-08-19T12:28:24;8.00;;;5.72;;
17890;SDS011;9071;48.220;14.480;2022-08-19T12:33:28;7.55;;;5.90;;
17890;SDS011;9071;48.220;14.480;2022-08-19T12:38:32;6.82;;;5.75;;
17890;SDS011;9071;48.220;14.480;2022-08-19T12:43:35;9.30;;;6.47;;
17890;SDS011;9071;48.220;14.480;2022-08-19T12:48:39;7.38;;;6.60;;
17890;SDS011;9071;48.220;14.480;2022-08-19T12:53:42;7.50;;;5.65;;
17890;SDS011;9071;48.220;14.480;2022-08-19T12:58:45;7.68;;;6.00;;
17890;SDS011;9071;48.220;14.480;2022-08-19T13:03:48;8.32;;;5.80;;
17890;SDS011;9071;48.220;14.480;2022-08-19T13:08:52;7.78;;;5.95;;
17890;SDS011;9071;48.220;14.480;2022-08-19T13:13:55;8.13;;;6.22;;
17890;SDS011;9071;48.220;14.480;2022-08-19T13:18:58;8.52;;;6.88;;
17890;SDS011;9071;48.220;14.480;2022-08-19T13:24:03;8.65;;;6.85;;
17890;SDS011;9071;48.220;14.480;2022-08-19T13:29:06;7.15;;;5.63;;
17890;SDS011;9071;48.220;14.480;2022-08-19T13:34:28;11.65;;;6.50;;
17890;SDS011;9071;48.220;14.480;2022-08-19T13:39:33;8.07;;;6.72;;
17890;SDS011;9071;48.220;14.480;2022-08-19T13:44:36;9.75;;;7.88;;
17890;SDS011;9071;48.220;14.480;2022-08-19T13:49:39;9.57;;;8.18;;
17890;SDS011;9071;48.220;14.480;2022-08-19T13:54:41;8.80;;;7.72;;
17890;SDS011;9071;48.220;14.480;2022-08-19T13:59:44;9.57;;;7.20;;
17890;SDS011;9071;48.220;14.480;2022-08-19T14:04:47;9.32;;;7.82;;
17890;SDS011;9071;48.220;14.480;2022-08-19T14:09:49;10.57;;;7.55;;
17890;SDS011;9071;48.220;14.480;2022-08-19T14:14:51;9.73;;;7.70;;
17890;SDS011;9071;48.220;14.480;2022-08-19T14:19:57;11.02;;;8.10;;
17890;SDS011;9071;48.220;14.480;2022-08-19T14:25:00;10.48;;;7.88;;
17890;SDS011;9071;48.220;14.480;2022-08-19T14:30:04;9.75;;;7.50;;
17890;SDS011;9071;48.220;14.480;2022-08-19T14:35:09;11.25;;;8.38;;
17890;SDS011;9071;48.220;14.480;2022-08-19T14:40:14;8.15;;;7.32;;
17890;SDS011;9071;48.220;14.480;2022-08-19T14:45:20;11.80;;;7.47;;
17890;SDS011;9071;48.220;14.480;2022-08-19T14:50:24;10.93;;;7.85;;
17890;SDS011;9071;48.220;14.480;2022-08-19T14:55:26;10.07;;;7.10;;
17890;SDS011;9071;48.220;14.480;2022-08-19T15:00:28;11.63;;;7.70;;
17890;SDS011;9071;48.220;14.480;2022-08-19T15:05:31;9.20;;;7.70;;
17890;SDS011;9071;48.220;14.480;2022-08-19T15:10:33;14.52;;;8.07;;
17890;SDS011;9071;48.220;14.480;2022-08-19T15:15:35;8.75;;;7.95;;
17890;SDS011;9071;48.220;14.480;2022-08-19T15:20:40;9.60;;;7.97;;
17890;SDS011;9071;48.220;14.480;2022-08-19T15:25:43;11.23;;;8.35;;
17890;SDS011;9071;48.220;14.480;2022-08-19T15:30:45;10.75;;;8.38;;
17890;SDS011;9071;48.220;14.480;2022-08-19T15:35:49;11.23;;;7.70;;
17890;SDS011;9071;48.220;14.480;2022-08-19T15:40:51;9.75;;;1.95;;
17890;SDS011;9071;48.220;14.480;2022-08-19T15:46:15;3.53;;;1.27;;
17890;SDS011;9071;48.220;14.480;2022-08-19T15:51:20;6.60;;;1.48;;
17890;SDS011;9071;48.220;14.480;2022-08-19T15:56:22;5.38;;;1.52;;
17890;SDS011;9071;48.220;14.480;2022-08-19T16:01:24;3.55;;;1.45;;
17890;SDS011;9071;48.220;14.480;2022-08-19T16:06:46;6.13;;;2.00;;
17890;SDS011;9071;48.220;14.480;2022-08-19T16:11:49;8.02;;;3.05;;
17890;SDS011;9071;48.220;14.480;2022-08-19T16:16:52;6.13;;;2.50;;
17890;SDS011;9071;48.220;14.480;2022-08-19T16:21:57;8.90;;;3.67;;
17890;SDS011;9071;48.220;14.480;2022-08-19T16:26:59;10.13;;;2.70;;
17890;SDS011;9071;48.220;14.480;2022-08-19T16:32:01;6.78;;;2.40;;
17890;SDS011;9071;48.220;14.480;2022-08-19T16:37:05;4.13;;;2.58;;
17890;SDS011;9071;48.220;14.480;2022-08-19T16:42:09;2.92;;;2.10;;
17890;SDS011;9071;48.220;14.480;2022-08-19T16:47:13;5.80;;;2.00;;
17890;SDS011;9071;48.220;14.480;2022-08-19T16:52:17;8.57;;;1.90;;
17890;SDS011;9071;48.220;14.480;2022-08-19T16:57:20;6.97;;;2.47;;
17890;SDS011;9071;48.220;14.480;2022-08-19T17:02:23;6.28;;;2.30;;
17890;SDS011;9071;48.220;14.480;2022-08-19T17:07:28;7.22;;;2.53;;
17890;SDS011;9071;48.220;14.480;2022-08-19T17:12:30;4.80;;;2.70;;
17890;SDS011;9071;48.220;14.480;2022-08-19T17:17:34;5.47;;;2.20;;
17890;SDS011;9071;48.220;14.480;2022-08-19T17:22:37;5.03;;;2.30;;
17890;SDS011;9071;48.220;14.480;2022-08-19T17:27:39;7.10;;;2.30;;
17890;SDS011;9071;48.220;14.480;2022-08-19T17:32:41;6.90;;;2.50;;
17890;SDS011;9071;48.220;14.480;2022-08-19T17:37:48;8.80;;;2.70;;
17890;SDS011;9071;48.220;14.480;2022-08-19T17:42:51;5.50;;;2.60;;
17890;SDS011;9071;48.220;14.480;2022-08-19T17:47:53;6.03;;;2.90;;
17890;SDS011;9071;48.220;14.480;2022-08-19T17:52:57;7.78;;;2.90;;
17890;SDS011;9071;48.220;14.480;2022-08-19T17:58:00;7.47;;;2.80;;
17890;SDS011;9071;48.220;14.480;2022-08-19T18:03:04;6.03;;;2.67;;
17890;SDS011;9071;48.220;14.480;2022-08-19T18:08:09;7.60;;;3.00;;
17890;SDS011;9071;48.220;14.480;2022-08-19T18:13:11;6.18;;;2.78;;
17890;SDS011;9071;48.220;14.480;2022-08-19T18:18:13;7.93;;;2.83;;
17890;SDS011;9071;48.220;14.480;2022-08-19T18:23:17;6.13;;;2.67;;
17890;SDS011;9071;48.220;14.480;2022-08-19T18:28:19;6.93;;;2.60;;
17890;SDS011;9071;48.220;14.480;2022-08-19T18:33:22;5.32;;;2.65;;
17890;SDS011;9071;48.220;14.480;2022-08-19T18:38:26;6.60;;;2.50;;
17890;SDS011;9071;48.220;14.480;2022-08-19T18:43:45;6.80;;;2.80;;
17890;SDS011;9071;48.220;14.480;2022-08-19T18:49:05;4.55;;;2.70;;
17890;SDS011;9071;48.220;14.480;2022-08-19T18:54:10;7.40;;;3.80;;
17890;SDS011;9071;48.220;14.480;2022-08-19T18:59:12;6.65;;;2.88;;
17890;SDS011;9071;48.220;14.480;2022-08-19T19:04:15;8.90;;;2.65;;
17890;SDS011;9071;48.220;14.480;2022-08-19T19:09:21;5.05;;;2.80;;
17890;SDS011;9071;48.220;14.480;2022-08-19T19:14:25;4.80;;;2.85;;
17890;SDS011;9071;48.220;14.480;2022-08-19T19:19:32;4.75;;;3.53;;
17890;SDS011;9071;48.220;14.480;2022-08-19T19:24:36;8.40;;;4.10;;
17890;SDS011;9071;48.220;14.480;2022-08-19T19:29:43;8.60;;;4.28;;
17890;SDS011;9071;48.220;14.480;2022-08-19T19:34:45;12.40;;;5.88;;
17890;SDS011;9071;48.220;14.480;2022-08-19T19:39:49;11.98;;;5.97;;
17890;SDS011;9071;48.220;14.480;2022-08-19T19:44:52;9.63;;;5.90;;
17890;SDS011;9071;48.220;14.480;2022-08-19T19:49:55;13.40;;;6.28;;
17890;SDS011;9071;48.220;14.480;2022-08-19T19:54:59;10.82;;;6.55;;
17890;SDS011;9071;48.220;14.480;2022-08-19T20:00:02;11.25;;;6.93;;
17890;SDS011;9071;48.220;14.480;2022-08-19T20:05:06;11.95;;;6.75;;
17890;SDS011;9071;48.220;14.480;2022-08-19T20:10:10;12.80;;;7.47;;
17890;SDS011;9071;48.220;14.480;2022-08-19T20:15:13;12.27;;;6.80;;
17890;SDS011;9071;48.220;14.480;2022-08-19T20:20:15;9.82;;;6.07;;
17890;SDS011;9071;48.220;14.480;2022-08-19T20:25:20;8.88;;;6.00;;
17890;SDS011;9071;48.220;14.480;2022-08-19T20:30:22;9.35;;;5.78;;
17890;SDS011;9071;48.220;14.480;2022-08-19T20:35:24;8.23;;;5.47;;
17890;SDS011;9071;48.220;14.480;2022-08-19T20:40:28;8.07;;;5.03;;
17890;SDS011;9071;48.220;14.480;2022-08-19T20:45:31;7.93;;;5.18;;
17890;SDS011;9071;48.220;14.480;2022-08-19T20:50:36;9.88;;;5.45;;
17890;SDS011;9071;48.220;14.480;2022-08-19T20:55:42;10.43;;;5.35;;
17890;SDS011;9071;48.220;14.480;2022-08-19T21:00:46;11.40;;;5.47;;
17890;SDS011;9071;48.220;14.480;2022-08-19T21:05:49;8.10;;;5.13;;
17890;SDS011;9071;48.220;14.480;2022-08-19T21:10:53;8.68;;;5.18;;
17890;SDS011;9071;48.220;14.480;2022-08-19T21:15:56;9.15;;;5.35;;
17890;SDS011;9071;48.220;14.480;2022-08-19T21:20:58;7.65;;;5.53;;
17890;SDS011;9071;48.220;14.480;2022-08-19T21:26:02;6.80;;;4.93;;
17890;SDS011;9071;48.220;14.480;2022-08-19T21:31:04;9.15;;;5.93;;
17890;SDS011;9071;48.220;14.480;2022-08-19T21:36:09;9.63;;;6.40;;
17890;SDS011;9071;48.220;14.480;2022-08-19T21:41:13;12.50;;;7.40;;
17890;SDS011;9071;48.220;14.480;2022-08-19T21:46:15;14.18;;;6.68;;
17890;SDS011;9071;48.220;14.480;2022-08-19T21:51:17;11.95;;;7.07;;
17890;SDS011;9071;48.220;14.480;2022-08-19T21:56:20;13.20;;;8.30;;
17890;SDS011;9071;48.220;14.480;2022-08-19T22:01:23;15.18;;;9.00;;
17890;SDS011;9071;48.220;14.480;2022-08-19T22:06:25;12.57;;;8.05;;
17890;SDS011;9071;48.220;14.480;2022-08-19T22:11:29;17.15;;;8.63;;
17890;SDS011;9071;48.220;14.480;2022-08-19T22:16:31;16.58;;;9.60;;
17890;SDS011;9071;48.220;14.480;2022-08-19T22:21:33;16.95;;;9.45;;
17890;SDS011;9071;48.220;14.480;2022-08-19T22:26:37;20.00;;;11.10;;
17890;SDS011;9071;48.220;14.480;2022-08-19T22:31:39;17.95;;;12.20;;
17890;SDS011;9071;48.220;14.480;2022-08-19T22:36:41;19.63;;;11.63;;
17890;SDS011;9071;48.220;14.480;2022-08-19T22:41:45;16.08;;;10.98;;
17890;SDS011;9071;48.220;14.480;2022-08-19T22:46:48;16.15;;;10.82;;
17890;SDS011;9071;48.220;14.480;2022-08-19T22:51:50;21.15;;;10.70;;
17890;SDS011;9071;48.220;14.480;2022-08-19T22:57:11;18.77;;;10.68;;
17890;SDS011;9071;48.220;14.480;2022-08-19T23:02:16;16.10;;;9.68;;
17890;SDS011;9071;48.220;14.480;2022-08-19T23:07:19;23.77;;;11.98;;
17890;SDS011;9071;48.220;14.480;2022-08-19T23:12:27;19.02;;;10.48;;
17890;SDS011;9071;48.220;14.480;2022-08-19T23:17:32;20.08;;;10.43;;
17890;SDS011;9071;48.220;14.480;2022-08-19T23:22:35;17.67;;;11.48;;
17890;SDS011;9071;48.220;14.480;2022-08-19T23:27:39;21.23;;;13.20;;
17890;SDS011;9071;48.220;14.480;2022-08-19T23:33:01;24.55;;;12.70;;
17890;SDS011;9071;48.220;14.480;2022-08-19T23:38:07;18.80;;;12.48;;
17890;SDS011;9071;48.220;14.480;2022-08-19T23:43:11;27.08;;;14.98;;
17890;SDS011;9071;48.220;14.480;2022-08-19T23:48:14;26.33;;;15.40;;
17890;SDS011;9071;48.220;14.480;2022-08-19T23:53:17;33.13;;;17.85;;
17890;SDS011;9071;48.220;14.480;2022-08-19T23:58:21;36.85;;;18.63;;
